41.8°F
Current conditions from King Hill
Updated every 5 minutes
 
  Saturday October 25, 2014

Station Historical Data
Daily Summary for November 29, 2011 Units:  Metric    English   Both
« Previous Day
Next Day »
Daily Weekly Monthly Yearly Custom
  High: Low: Average:
Temperature: 17.4 °C 5.9 °C 12.7 °C
Dew Point: 12.1 °C 3.9 °C 9.2 °C
Humidity: 94% 68% 80%
Wind Speed: 17.7km/h 0km/h 6.8km/h
Wind Gust: 35.4km/h - -
Wind- - SSW
Pressure: 1017.2 hPa 1000.2 hPa -
Precipitation: 1.8 mm    
Historical Graphs
 
 
Tabular Data for November 29, 2011
Time Temperature Dew Point Pressure Wind Wind Speed Wind Gust Humidity Daily Rainfall
00:04 5.9 °C 3.9 °C 1017.2 hPa Calm     87% 0 mm
00:09 5.9 °C 3.9 °C 1016.8 hPa Calm     87% 0 mm
00:14 6 °C 4 °C 1016.8 hPa Calm     87% 0 mm
00:19 6 °C 4 °C 1016.8 hPa Calm     87% 0 mm
00:24 6 °C 4 °C 1016.8 hPa Calm     87% 0 mm
00:29 6 °C 4 °C 1016.5 hPa Calm   3.2 km/h 87% 0 mm
00:34 6 °C 4 °C 1016.5 hPa Calm   3.2 km/h 87% 0 mm
00:39 5.9 °C 3.9 °C 1016.5 hPa Calm   4.8 km/h 87% 0 mm
00:44 5.9 °C 4.1 °C 1016.1 hPa Calm   4.8 km/h 88% 0 mm
00:49 5.9 °C 4.1 °C 1016.1 hPa Calm     88% 0 mm
00:54 5.9 °C 4.1 °C 1016.1 hPa Calm     88% 0 mm
00:59 5.9 °C 4.1 °C 1016.1 hPa Calm     88% 0 mm
01:04 5.9 °C 4.1 °C 1016.1 hPa Calm   1.6 km/h 88% 0 mm
01:09 5.9 °C 4.1 °C 1016.1 hPa Calm   1.6 km/h 88% 0 mm
01:14 5.9 °C 4.1 °C 1016.1 hPa Calm     88% 0 mm
01:19 5.9 °C 4.1 °C 1016.1 hPa Calm   3.2 km/h 88% 0 mm
01:24 5.9 °C 4.1 °C 1016.1 hPa NE 1.6 km/h 4.8 km/h 88% 0 mm
01:29 5.9 °C 4.1 °C 1016.5 hPa Calm   4.8 km/h 88% 0 mm
01:34 5.9 °C 4.1 °C 1016.1 hPa NE 1.6 km/h 4.8 km/h 88% 0 mm
01:39 5.9 °C 4.1 °C 1016.1 hPa ENE 6.4 km/h 9.7 km/h 88% 0 mm
01:44 5.9 °C 4.1 °C 1016.5 hPa SSW 3.2 km/h 9.7 km/h 88% 0 mm
01:49 5.9 °C 4.1 °C 1016.1 hPa SSW 1.6 km/h 9.7 km/h 88% 0 mm
01:54 5.9 °C 4.2 °C 1016.1 hPa SSW 6.4 km/h 11.3 km/h 89% 0 mm
01:59 5.9 °C 4.3 °C 1016.1 hPa SSW 4.8 km/h 11.3 km/h 89% 0 mm
02:04 6.1 °C 4.4 °C 1016.1 hPa SSW 4.8 km/h 11.3 km/h 89% 0 mm
02:09 6.1 °C 4.4 °C 1016.1 hPa SSW 3.2 km/h 11.3 km/h 89% 0 mm
02:14 6.1 °C 4.4 °C 1016.1 hPa SSW 3.2 km/h 8 km/h 89% 0 mm
02:19 6.2 °C 4.5 °C 1016.1 hPa SSW 3.2 km/h 8 km/h 89% 0 mm
02:24 6.2 °C 4.7 °C 1016.1 hPa SSW 3.2 km/h 8 km/h 90% 0 mm
02:29 6.2 °C 4.6 °C 1016.1 hPa SSW 4.8 km/h 8 km/h 89% 0 mm
02:34 6.2 °C 4.6 °C 1016.1 hPa SSW 4.8 km/h 8 km/h 89% 0 mm
02:39 6.2 °C 4.5 °C 1016.1 hPa SSW 1.6 km/h 8 km/h 89% 0 mm
02:44 6.2 °C 4.5 °C 1016.1 hPa SSW 4.8 km/h 11.3 km/h 89% 0 mm
02:49 6.1 °C 4.4 °C 1015.8 hPa SSW 3.2 km/h 11.3 km/h 89% 0 mm
02:54 6 °C 4.3 °C 1015.8 hPa SSW 3.2 km/h 11.3 km/h 89% 0 mm
02:59 6 °C 4.3 °C 1015.8 hPa SSW 3.2 km/h 9.7 km/h 89% 0 mm
03:04 6.2 °C 4.7 °C 1015.8 hPa SSW 1.6 km/h 9.7 km/h 90% 0 mm
03:09 6.3 °C 4.8 °C 1015.5 hPa SSW 3.2 km/h 9.7 km/h 90% 0 mm
03:14 6.3 °C 4.8 °C 1015.5 hPa SSW 3.2 km/h 11.3 km/h 90% 0 mm
03:19 6.4 °C 4.9 °C 1015.5 hPa SSW 6.4 km/h 11.3 km/h 90% 0 mm
03:24 6.4 °C 4.9 °C 1015.5 hPa SSW 4.8 km/h 11.3 km/h 90% 0 mm
03:29 6.3 °C 4.8 °C 1015.5 hPa SSW 4.8 km/h 11.3 km/h 90% 0 mm
03:34 6.2 °C 4.7 °C 1015.5 hPa SSW 1.6 km/h 6.4 km/h 90% 0 mm
03:39 6.2 °C 4.7 °C 1015.5 hPa SSW 3.2 km/h 8 km/h 90% 0 mm
03:44 6.4 °C 5.1 °C 1015.1 hPa SSW 4.8 km/h 9.7 km/h 91% 0 mm
03:49 6.6 °C 5.2 °C 1015.5 hPa SSW 6.4 km/h 11.3 km/h 91% 0 mm
03:54 6.7 °C 5.3 °C 1015.5 hPa SSW 3.2 km/h 11.3 km/h 91% 0 mm
03:59 6.6 °C 5.2 °C 1015.5 hPa SSW 1.6 km/h 9.7 km/h 91% 0 mm
04:04 6.6 °C 5.2 °C 1015.5 hPa SSW 3.2 km/h 9.7 km/h 91% 0 mm
04:09 6.4 °C 5 °C 1015.5 hPa SSW 3.2 km/h 6.4 km/h 91% 0 mm
04:14 6.2 °C 4.9 °C 1015.5 hPa SSW 1.6 km/h 6.4 km/h 91% 0 mm
04:19 6.2 °C 4.8 °C 1015.5 hPa Calm   6.4 km/h 91% 0 mm
04:24 6.3 °C 4.9 °C 1015.5 hPa SSW 3.2 km/h 9.7 km/h 91% 0 mm
04:29 6.6 °C 5.2 °C 1015.5 hPa Calm   11.3 km/h 91% 0 mm
04:34 6.7 °C 5.3 °C 1015.1 hPa SSW 3.2 km/h 11.3 km/h 91% 0 mm
04:39 6.8 °C 5.6 °C 1015.1 hPa SSW 4.8 km/h 9.7 km/h 92% 0 mm
04:44 6.9 °C 5.7 °C 1015.1 hPa SSW 3.2 km/h 11.3 km/h 92% 0 mm
04:49 6.9 °C 5.7 °C 1015.1 hPa Calm   11.3 km/h 92% 0 mm
04:54 6.8 °C 5.6 °C 1015.1 hPa Calm   4.8 km/h 92% 0 mm
04:59 6.7 °C 5.3 °C 1015.1 hPa Calm   3.2 km/h 91% 0 mm
05:04 6.7 °C 5.3 °C 1015.1 hPa Calm   3.2 km/h 91% 0 mm
05:09 6.7 °C 5.3 °C 1014.8 hPa SSW 1.6 km/h 4.8 km/h 91% 0 mm
05:14 6.9 °C 5.7 °C 1014.8 hPa SSW 1.6 km/h 4.8 km/h 92% 0 mm
05:19 7 °C 5.8 °C 1014.8 hPa Calm   4.8 km/h 92% 0 mm
05:24 7.1 °C 5.8 °C 1014.8 hPa SSW 3.2 km/h 8 km/h 92% 0 mm
05:29 7.4 °C 6.4 °C 1014.8 hPa SSW 4.8 km/h 8 km/h 93% 0 mm
05:34 8.3 °C 7.4 °C 1014.8 hPa SSW 4.8 km/h 9.7 km/h 94% 0 mm
05:39 8.6 °C 7.7 °C 1014.8 hPa SSW 4.8 km/h 9.7 km/h 94% 0 mm
05:44 8.8 °C 7.9 °C 1014.8 hPa SSW 4.8 km/h 11.3 km/h 94% 0 mm
05:49 9.1 °C 8 °C 1014.8 hPa SSW 3.2 km/h 11.3 km/h 93% 0 mm
05:54 9.2 °C 8 °C 1014.8 hPa Calm   11.3 km/h 92% 0 mm
05:59 9.3 °C 7.8 °C 1014.8 hPa SSW 6.4 km/h 11.3 km/h 90% 0 mm
06:04 9.5 °C 7.8 °C 1014.8 hPa SSW 8 km/h 11.3 km/h 89% 0 mm
06:09 9.6 °C 7.8 °C 1014.8 hPa SSW 6.4 km/h 11.3 km/h 89% 0 mm
06:14 9.6 °C 7.7 °C 1014.4 hPa SSW 4.8 km/h 11.3 km/h 88% 0 mm
06:19 9.6 °C 7.5 °C 1014.4 hPa SSW 4.8 km/h 11.3 km/h 87% 0 mm
06:24 9.6 °C 7.5 °C 1014.4 hPa SSW 4.8 km/h 11.3 km/h 87% 0 mm
06:29 9.7 °C 7.8 °C 1014.4 hPa SSW 6.4 km/h 11.3 km/h 88% 0 mm
06:34 9.9 °C 7.8 °C 1014.4 hPa SSW 6.4 km/h 14.5 km/h 87% 0 mm
06:39 10.1 °C 8.1 °C 1014.4 hPa SSW 4.8 km/h 14.5 km/h 87% 0 mm
06:44 10.1 °C 8.1 °C 1014.4 hPa Calm   9.7 km/h 87% 0 mm
06:49 10.2 °C 8.1 °C 1014.4 hPa Calm   4.8 km/h 87% 0 mm
06:54 10.2 °C 8 °C 1014.4 hPa SSW 3.2 km/h 8 km/h 86% 0 mm
06:59 10.3 °C 8.1 °C 1014.4 hPa SSW 4.8 km/h 11.3 km/h 86% 0 mm
07:04 10.3 °C 7.9 °C 1014.4 hPa SSW 6.4 km/h 11.3 km/h 85% 0 mm
07:09 10.3 °C 7.9 °C 1014.4 hPa SSW 6.4 km/h 11.3 km/h 85% 0 mm
07:14 10.3 °C 7.9 °C 1014.4 hPa SSW 4.8 km/h 9.7 km/h 85% 0 mm
07:19 10.4 °C 8.1 °C 1014.4 hPa SSW 4.8 km/h 11.3 km/h 85% 0 mm
07:24 10.6 °C 8.2 °C 1014.4 hPa SSW 8 km/h 11.3 km/h 85% 0 mm
07:29 10.6 °C 8.2 °C 1014.4 hPa SSW 6.4 km/h 11.3 km/h 85% 0 mm
07:34 10.8 °C 8.3 °C 1014.4 hPa SSW 6.4 km/h 14.5 km/h 85% 0 mm
07:39 10.8 °C 8.2 °C 1014.1 hPa SSW 4.8 km/h 14.5 km/h 84% 0 mm
07:44 10.9 °C 8.4 °C 1014.4 hPa SSW 3.2 km/h 11.3 km/h 85% 0 mm
07:49 11 °C 8.4 °C 1014.4 hPa SSW 3.2 km/h 11.3 km/h 84% 0 mm
07:54 11.1 °C 8.5 °C 1014.4 hPa SSW 6.4 km/h 11.3 km/h 84% 0 mm
07:59 11.1 °C 8.5 °C 1014.4 hPa SSW 1.6 km/h 11.3 km/h 84% 0 mm
08:04 11.2 °C 8.6 °C 1014.4 hPa SSW 3.2 km/h 11.3 km/h 84% 0 mm
08:09 11.2 °C 8.6 °C 1014.4 hPa SSW 1.6 km/h 11.3 km/h 84% 0 mm
08:14 11.2 °C 8.6 °C 1014.1 hPa SSW 1.6 km/h 9.7 km/h 84% 0 mm
08:19 11.2 °C 8.6 °C 1014.1 hPa SSW 1.6 km/h 8 km/h 84% 0 mm
08:24 11.3 °C 8.7 °C 1014.1 hPa SSW 1.6 km/h 8 km/h 84% 0 mm
08:30 11.4 °C 8.8 °C 1014.1 hPa SSW 1.6 km/h 8 km/h 84% 0 mm
08:39 11.5 °C 8.7 °C 1014.1 hPa SSW 1.6 km/h 11.3 km/h 83% 0 mm
08:44 11.5 °C 8.7 °C 1014.1 hPa Calm   11.3 km/h 83% 0 mm
08:49 11.6 °C 8.9 °C 1014.1 hPa Calm   1.6 km/h 84% 0 mm
08:54 11.6 °C 9 °C 1014.1 hPa SSW 6.4 km/h 16.1 km/h 84% 0 mm
08:59 11.7 °C 8.9 °C 1013.8 hPa SSW 8 km/h 16.1 km/h 83% 0 mm
09:04 11.7 °C 8.9 °C 1013.8 hPa SSW 9.7 km/h 20.9 km/h 83% 0 mm
09:09 11.7 °C 8.9 °C 1013.8 hPa SSW 9.7 km/h 20.9 km/h 83% 0 mm
09:14 11.7 °C 8.9 °C 1014.1 hPa SSW 8 km/h 17.7 km/h 83% 0 mm
09:19 11.7 °C 8.9 °C 1013.8 hPa SSW 9.7 km/h 16.1 km/h 83% 0 mm
09:24 11.8 °C 9 °C 1013.8 hPa SSW 8 km/h 16.1 km/h 83% 0 mm
09:29 11.8 °C 9.2 °C 1014.1 hPa SSW 4.8 km/h 12.9 km/h 84% 0 mm
09:34 11.9 °C 9.3 °C 1014.1 hPa SSW 4.8 km/h 12.9 km/h 84% 0 mm
09:39 12.1 °C 9.4 °C 1014.1 hPa SSW 4.8 km/h 11.3 km/h 84% 0 mm
09:44 12.2 °C 9.6 °C 1014.1 hPa SSW 1.6 km/h 11.3 km/h 84% 0 mm
09:50 12.4 °C 9.6 °C 1014.1 hPa Calm   9.7 km/h 83% 0 mm
09:59 12.9 °C 10.1 °C 1014.1 hPa SSW 3.2 km/h 6.4 km/h 83% 0 mm
10:04 13.3 °C 10.3 °C 1014.1 hPa SSW 4.8 km/h 9.7 km/h 82% 0 mm
10:09 13.7 °C 10.5 °C 1014.1 hPa SW 4.8 km/h 11.3 km/h 81% 0 mm
10:14 14 °C 10.6 °C 1014.1 hPa SSW 9.7 km/h 14.5 km/h 80% 0 mm
10:19 14.3 °C 10.9 °C 1014.1 hPa SW 9.7 km/h 19.3 km/h 80% 0 mm
10:24 14.4 °C 10.8 °C 1014.1 hPa SW 12.9 km/h 19.3 km/h 79% 0 mm
10:29 14.4 °C 10.8 °C 1013.8 hPa SW 9.7 km/h 17.7 km/h 79% 0 mm
10:34 14.5 °C 10.9 °C 1013.8 hPa SSW 8 km/h 17.7 km/h 79% 0 mm
10:39 14.5 °C 10.9 °C 1013.8 hPa SSW 8 km/h 25.7 km/h 79% 0 mm
10:44 14.6 °C 10.9 °C 1013.8 hPa SSW 8 km/h 25.7 km/h 79% 0 mm
10:49 14.5 °C 10.7 °C 1013.4 hPa South 4.8 km/h 14.5 km/h 78% 0 mm
10:54 14.5 °C 10.9 °C 1013.1 hPa SSW 8 km/h 17.7 km/h 79% 0 mm
10:59 14.7 °C 11.1 °C 1013.1 hPa South 3.2 km/h 17.7 km/h 79% 0 mm
11:04 15 °C 11 °C 1013.1 hPa SSW 11.3 km/h 17.7 km/h 77% 0 mm
11:09 15.3 °C 11.1 °C 1013.1 hPa SSW 8 km/h 17.7 km/h 76% 0 mm
11:14 15.7 °C 11.4 °C 1013.1 hPa SSW 3.2 km/h 17.7 km/h 76% 0 mm
11:19 15.8 °C 11.2 °C 1012.8 hPa SW 9.7 km/h 19.3 km/h 74% 0 mm
11:24 15.9 °C 11.3 °C 1012.8 hPa SSW 9.7 km/h 19.3 km/h 74% 0 mm
11:29 16.1 °C 11.4 °C 1012.8 hPa SSW 9.7 km/h 19.3 km/h 74% 0 mm
11:34 16.1 °C 11.5 °C 1012.4 hPa SSW 11.3 km/h 25.7 km/h 74% 0 mm
11:39 16.2 °C 11.6 °C 1012.4 hPa SSW 11.3 km/h 25.7 km/h 74% 0 mm
11:44 16.1 °C 11.4 °C 1012.1 hPa SSW 11.3 km/h 27.4 km/h 74% 0 mm
11:49 15.9 °C 11.3 °C 1012.1 hPa SSW 14.5 km/h 29 km/h 74% 0 mm
11:54 15.8 °C 11.2 °C 1012.1 hPa SSW 11.3 km/h 30.6 km/h 74% 0 mm
11:59 15.8 °C 11.3 °C 1012.1 hPa SSW 8 km/h 30.6 km/h 75% 0 mm
12:04 15.8 °C 11.4 °C 1012.1 hPa SSW 8 km/h 29 km/h 75% 0 mm
12:09 15.9 °C 11.3 °C 1012.1 hPa SW 12.9 km/h 19.3 km/h 74% 0 mm
12:14 16.1 °C 11.5 °C 1012.1 hPa SW 6.4 km/h 19.3 km/h 74% 0 mm
12:19 16.2 °C 11.3 °C 1012.1 hPa SW 11.3 km/h 25.7 km/h 73% 0 mm
12:24 16.2 °C 11.3 °C 1012.1 hPa SW 12.9 km/h 25.7 km/h 73% 0 mm
12:29 16.3 °C 11.4 °C 1012.1 hPa SW 9.7 km/h 27.4 km/h 73% 0 mm
12:34 16.4 °C 11.6 °C 1011.7 hPa SW 11.3 km/h 27.4 km/h 73% 0 mm
12:39 16.6 °C 11.5 °C 1011.7 hPa SW 14.5 km/h 22.5 km/h 72% 0 mm
12:44 16.7 °C 11.4 °C 1011.7 hPa SW 17.7 km/h 29 km/h 71% 0 mm
12:49 16.7 °C 11.6 °C 1011.7 hPa SW 11.3 km/h 29 km/h 72% 0 mm
12:54 16.8 °C 11.5 °C 1011.4 hPa SW 11.3 km/h 25.7 km/h 71% 0 mm
12:59 16.8 °C 11.6 °C 1011.4 hPa SSW 12.9 km/h 25.7 km/h 71% 0 mm
13:04 16.9 °C 11.6 °C 1011.4 hPa SW 9.7 km/h 22.5 km/h 71% 0 mm
13:09 17 °C 11.7 °C 1011.1 hPa SSW 6.4 km/h 17.7 km/h 71% 0 mm
13:14 17 °C 11.9 °C 1011.1 hPa SSW 4.8 km/h 19.3 km/h 72% 0 mm
13:19 17.1 °C 11.6 °C 1010.7 hPa SW 8 km/h 19.3 km/h 70% 0 mm
13:24 17.1 °C 11.6 °C 1010.7 hPa SSW 6.4 km/h 19.3 km/h 70% 0 mm
13:29 17.2 °C 11.7 °C 1010.7 hPa SSW 4.8 km/h 17.7 km/h 70% 0 mm
13:34 17.2 °C 11.7 °C 1010.4 hPa SSW 4.8 km/h 14.5 km/h 70% 0 mm
13:39 17.2 °C 11.4 °C 1010.4 hPa South 4.8 km/h 11.3 km/h 69% 0 mm
13:44 17.1 °C 11.6 °C 1010.4 hPa SSW 3.2 km/h 11.3 km/h 70% 0 mm
13:49 17.1 °C 11.6 °C 1010.4 hPa SSW 3.2 km/h 11.3 km/h 70% 0 mm
13:54 17.2 °C 11.4 °C 1010.4 hPa SSW 1.6 km/h 11.3 km/h 69% 0 mm
13:59 17.3 °C 11.6 °C 1010.4 hPa SSW 3.2 km/h 8 km/h 69% 0 mm
14:04 17.4 °C 11.7 °C 1010.4 hPa Calm   8 km/h 69% 0 mm
14:09 17.4 °C 11.7 °C 1010.4 hPa Calm     69% 0 mm
14:14 17.4 °C 11.9 °C 1010.4 hPa Calm     70% 0 mm
14:19 17.4 °C 12.1 °C 1010.4 hPa Calm     71% 0 mm
14:24 17.3 °C 12 °C 1010.4 hPa SSW 1.6 km/h 4.8 km/h 71% 0 mm
14:29 17.3 °C 11.6 °C 1010 hPa South 3.2 km/h 6.4 km/h 69% 0 mm
14:34 17.3 °C 11.4 °C 1010 hPa South 9.7 km/h 16.1 km/h 68% 0 mm
14:39 17.3 °C 11.3 °C 1010.4 hPa South 8 km/h 16.1 km/h 68% 0 mm
14:44 17.2 °C 11.2 °C 1010 hPa South 6.4 km/h 16.1 km/h 68% 0 mm
14:49 17.1 °C 11.3 °C 1010 hPa South 4.8 km/h 14.5 km/h 69% 0 mm
14:54 16.9 °C 11.2 °C 1010.4 hPa South 1.6 km/h 12.9 km/h 69% 0 mm
14:59 16.9 °C 11.4 °C 1010 hPa South 1.6 km/h 12.9 km/h 70% 0 mm
15:04 16.8 °C 11.3 °C 1010 hPa South 3.2 km/h 12.9 km/h 70% 0 mm
15:09 16.8 °C 11.3 °C 1010 hPa South 1.6 km/h 14.5 km/h 70% 0 mm
15:14 16.7 °C 11.4 °C 1010 hPa SSW 4.8 km/h 20.9 km/h 71% 0 mm
15:19 16.6 °C 11.3 °C 1010 hPa South 6.4 km/h 20.9 km/h 71% 0 mm
15:24 16.6 °C 11.5 °C 1010 hPa SSE 1.6 km/h 11.3 km/h 72% 0 mm
15:29 16.5 °C 11.4 °C 1010 hPa SSE 3.2 km/h 14.5 km/h 72% 0 mm
15:34 16.4 °C 11.4 °C 1009.7 hPa South 6.4 km/h 14.5 km/h 72% 0 mm
15:39 16.4 °C 11.4 °C 1009.7 hPa SSW 3.2 km/h 17.7 km/h 72% 0 mm
15:44 16.4 °C 11.4 °C 1009.7 hPa South 1.6 km/h 17.7 km/h 72% 0 mm
15:49 16.4 °C 11.3 °C 1009.7 hPa South 9.7 km/h 16.1 km/h 72% 0 mm
15:54 16.4 °C 11.3 °C 1009.7 hPa SSW 11.3 km/h 24.1 km/h 72% 0 mm
15:59 16.4 °C 11.3 °C 1009.7 hPa South 8 km/h 24.1 km/h 72% 0 mm
16:04 16.3 °C 11.3 °C 1009.7 hPa SSE 4.8 km/h 19.3 km/h 72% 0 mm
16:09 16.3 °C 11.2 °C 1009.7 hPa South 8 km/h 17.7 km/h 72% 0 mm
16:14 16.3 °C 11.2 °C 1009.7 hPa SSE 8 km/h 17.7 km/h 72% 0 mm
16:19 16.2 °C 11.4 °C 1009.7 hPa South 8 km/h 16.1 km/h 73% 0 mm
16:24 16.2 °C 11.2 °C 1009.7 hPa South 4.8 km/h 17.7 km/h 72% 0 mm
16:29 16.2 °C 11.2 °C 1009.7 hPa South 6.4 km/h 17.7 km/h 72% 0 mm
16:34 16.2 °C 11.1 °C 1009.4 hPa South 3.2 km/h 17.7 km/h 72% 0 mm
16:39 16.2 °C 11.1 °C 1009.4 hPa South 3.2 km/h 14.5 km/h 72% 0 mm
16:44 16.2 °C 11.1 °C 1009.7 hPa South 8 km/h 22.5 km/h 72% 0 mm
16:49 16.2 °C 11.1 °C 1009.7 hPa South 8 km/h 30.6 km/h 72% 0 mm
16:54 16.1 °C 11.5 °C 1009.7 hPa SSW 14.5 km/h 30.6 km/h 74% 0 mm
16:59 15.9 °C 11.3 °C 1009.7 hPa South 8 km/h 29 km/h 74% 0 mm
17:04 15.7 °C 11.3 °C 1009.4 hPa SSW 8 km/h 20.9 km/h 75% 0 mm
17:09 15.7 °C 11.3 °C 1009.4 hPa South 3.2 km/h 19.3 km/h 75% 0 mm
17:14 15.7 °C 11.3 °C 1009.4 hPa SSE 6.4 km/h 16.1 km/h 75% 0 mm
17:19 15.7 °C 11.1 °C 1009 hPa South 4.8 km/h 17.7 km/h 74% 0 mm
17:24 15.7 °C 11.1 °C 1009 hPa SSW 6.4 km/h 17.7 km/h 74% 0 mm
17:29 15.7 °C 10.9 °C 1009 hPa SSE 1.6 km/h 12.9 km/h 73% 0 mm
17:34 15.8 °C 10.9 °C 1009 hPa SSW 9.7 km/h 20.9 km/h 73% 0 mm
17:39 15.7 °C 10.9 °C 1009 hPa South 8 km/h 20.9 km/h 73% 0 mm
17:44 15.8 °C 10.9 °C 1008.7 hPa South 9.7 km/h 22.5 km/h 73% 0 mm
17:49 15.8 °C 11.2 °C 1008.7 hPa SE 3.2 km/h 22.5 km/h 74% 0 mm
17:54 15.7 °C 11.1 °C 1008.7 hPa South 8 km/h 22.5 km/h 74% 0 mm
17:59 15.7 °C 11.1 °C 1008.7 hPa SSE 8 km/h 22.5 km/h 74% 0 mm
18:04 15.7 °C 11.1 °C 1008.4 hPa SSE 4.8 km/h 19.3 km/h 74% 0 mm
18:09 15.6 °C 11.2 °C 1008 hPa SSW 8 km/h 19.3 km/h 75% 0 mm
18:14 15.5 °C 11.1 °C 1008.4 hPa South 11.3 km/h 24.1 km/h 75% 0 mm
18:19 15.5 °C 11.1 °C 1008 hPa South 8 km/h 24.1 km/h 75% 0 mm
18:24 15.4 °C 11.1 °C 1007.7 hPa SSW 9.7 km/h 20.9 km/h 75% 0 mm
18:30 15.4 °C 11 °C 1007.7 hPa SSW 8 km/h 24.1 km/h 75% 0 mm
18:39 15.2 °C 11 °C 1007.3 hPa South 11.3 km/h 20.9 km/h 76% 0 mm
18:44 15.2 °C 11 °C 1007.3 hPa South 12.9 km/h 24.1 km/h 76% 0 mm
18:49 15.2 °C 11 °C 1007.3 hPa South 14.5 km/h 32.2 km/h 76% 0 mm
18:54 15.2 °C 11 °C 1007 hPa South 11.3 km/h 32.2 km/h 76% 0 mm
18:59 15.2 °C 11 °C 1007 hPa SSE 6.4 km/h 27.4 km/h 76% 0 mm
19:04 15.2 °C 11 °C 1007 hPa SSW 11.3 km/h 29 km/h 76% 0 mm
19:09 15.3 °C 11.1 °C 1007 hPa South 11.3 km/h 32.2 km/h 76% 0 mm
19:14 15.3 °C 11.1 °C 1007 hPa SSW 14.5 km/h 32.2 km/h 76% 0 mm
19:19 15.3 °C 11.1 °C 1007 hPa SSW 11.3 km/h 27.4 km/h 76% 0 mm
19:24 15.4 °C 11 °C 1007 hPa South 6.4 km/h 24.1 km/h 75% 0 mm
19:29 15.5 °C 11.1 °C 1006.7 hPa South 11.3 km/h 24.1 km/h 75% 0 mm
19:34 15.5 °C 11.1 °C 1006.7 hPa SSE 14.5 km/h 29 km/h 75% 0 mm
19:39 15.6 °C 11.2 °C 1006.3 hPa South 11.3 km/h 29 km/h 75% 0 mm
19:44 15.5 °C 11.1 °C 1006.7 hPa SSW 14.5 km/h 27.4 km/h 75% 0 mm
19:49 15.4 °C 11.1 °C 1006.3 hPa South 14.5 km/h 27.4 km/h 75% 0 mm
19:54 15.5 °C 11.1 °C 1006.3 hPa SSW 11.3 km/h 25.7 km/h 75% 0 mm
19:59 15.4 °C 11.1 °C 1006.3 hPa South 6.4 km/h 27.4 km/h 75% 0 mm
20:04 15.4 °C 11.1 °C 1006.3 hPa South 11.3 km/h 27.4 km/h 75% 0 mm
20:09 15.4 °C 11.1 °C 1006 hPa South 11.3 km/h 27.4 km/h 75% 0 mm
20:14 15.6 °C 10.9 °C 1006 hPa SSW 12.9 km/h 20.9 km/h 74% 0 mm
20:19 15.6 °C 10.9 °C 1006 hPa South 9.7 km/h 20.9 km/h 74% 0 mm
20:24 15.6 °C 10.9 °C 1006 hPa South 6.4 km/h 19.3 km/h 74% 0 mm
20:29 15.6 °C 11 °C 1006 hPa SSW 8 km/h 19.3 km/h 74% 0 mm
20:34 15.6 °C 11 °C 1005.6 hPa South 4.8 km/h 17.7 km/h 74% 0 mm
20:39 15.6 °C 11 °C 1005.6 hPa South 4.8 km/h 17.7 km/h 74% 0 mm
20:44 15.7 °C 10.8 °C 1005.6 hPa SSE 3.2 km/h 16.1 km/h 73% 0 mm
20:49 15.7 °C 10.9 °C 1005.6 hPa South 9.7 km/h 22.5 km/h 73% 0 mm
20:54 15.7 °C 11.1 °C 1005.3 hPa SSW 6.4 km/h 22.5 km/h 74% 0 mm
20:59 15.7 °C 11.1 °C 1005 hPa South 9.7 km/h 24.1 km/h 74% 0 mm
21:04 15.7 °C 11.1 °C 1005 hPa South 6.4 km/h 24.1 km/h 74% 0 mm
21:09 15.7 °C 10.9 °C 1005 hPa SSW 6.4 km/h 17.7 km/h 73% 0 mm
21:14 15.7 °C 10.9 °C 1004.6 hPa SE 1.6 km/h 14.5 km/h 73% 0 mm
21:19 15.7 °C 11.1 °C 1004.3 hPa SSW 9.7 km/h 14.5 km/h 74% 0 mm
21:24 15.7 °C 11.1 °C 1004.3 hPa SE 4.8 km/h 16.1 km/h 74% 0 mm
21:29 15.7 °C 11.1 °C 1004.3 hPa SSW 6.4 km/h 16.1 km/h 74% 0 mm
21:35 15.7 °C 11.1 °C 1004.3 hPa South 4.8 km/h 16.1 km/h 74% 0 mm
21:44 15.8 °C 11.2 °C 1003.9 hPa SSW 6.4 km/h 17.7 km/h 74% 0 mm
21:49 15.7 °C 11.4 °C 1003.9 hPa SSW 9.7 km/h 19.3 km/h 76% 0 mm
21:54 15.4 °C 11.6 °C 1003.6 hPa South 8 km/h 19.3 km/h 78% 0 mm
21:59 15.3 °C 11.7 °C 1003.3 hPa SSW 8 km/h 19.3 km/h 79% 0 mm
22:04 15.3 °C 11.7 °C 1003.6 hPa South 8 km/h 24.1 km/h 79% 0 mm
22:09 15.3 °C 11.7 °C 1003.3 hPa South 11.3 km/h 24.1 km/h 79% 0 mm
22:14 15.4 °C 11.6 °C 1003.3 hPa South 12.9 km/h 27.4 km/h 78% 0 mm
22:19 15.4 °C 11.4 °C 1002.9 hPa South 14.5 km/h 32.2 km/h 77% 0 mm
22:24 15.5 °C 11.5 °C 1002.9 hPa South 11.3 km/h 32.2 km/h 77% 0 mm
22:29 15.5 °C 11.5 °C 1002.3 hPa SSW 6.4 km/h 20.9 km/h 77% 0 mm
22:34 15.5 °C 11.5 °C 1002.6 hPa SSW 6.4 km/h 20.9 km/h 77% 0 mm
22:39 15.5 °C 11.5 °C 1002.6 hPa South 8 km/h 22.5 km/h 77% 0 mm
22:44 15.6 °C 11.6 °C 1002.3 hPa South 11.3 km/h 22.5 km/h 77% 0 mm
22:54 15.7 °C 11.5 °C 1001.9 hPa South 11.3 km/h 33.8 km/h 76% 0 mm
22:59 15.8 °C 11.6 °C 1001.9 hPa South 12.9 km/h 33.8 km/h 76% 0 mm
23:04 15.9 °C 11.7 °C 1001.9 hPa SSW 9.7 km/h 27.4 km/h 76% 0 mm
23:09 15.9 °C 11.5 °C 1001.9 hPa SSW 9.7 km/h 27.4 km/h 75% 0 mm
23:14 16 °C 11.6 °C 1002.3 hPa SW 3.2 km/h 22.5 km/h 75% 0 mm
23:19 15.7 °C 12.1 °C 1002.3 hPa South 16.1 km/h 35.4 km/h 79% 0.3 mm
23:24 15.2 °C 11.9 °C 1001.9 hPa South 16.1 km/h 35.4 km/h 81% 0.5 mm
23:29 14.8 °C 12 °C 1001.6 hPa South 12.9 km/h 33.8 km/h 83% 1 mm
23:34 14.6 °C 11.9 °C 1000.9 hPa SSW 8 km/h 29 km/h 84% 1.3 mm
23:39 14.4 °C 11.9 °C 1000.2 hPa SSW 1.6 km/h 20.9 km/h 85% 1.5 mm
23:44 14.2 °C 11.9 °C 1000.6 hPa South 3.2 km/h 12.9 km/h 86% 1.8 mm
23:49 14.1 °C 11.8 °C 1000.6 hPa South 1.6 km/h 12.9 km/h 86% 1.8 mm
23:54 14 °C 11.9 °C 1000.2 hPa SW 6.4 km/h 14.5 km/h 87% 1.8 mm
23:59 13.9 °C 11.8 °C 1000.2 hPa SW 3.2 km/h 14.5 km/h 87% 1.8 mm
Westford Weather
Compliments of Weather Underground

 
 
Current Radar Loop:

Copyright © WestfordWeather.net 2007-2014. All rights reserved.